Time;durP1;ratioP1;P1;durP2;ratioP2;P2;SDS_P1;SDS_P2;PMS_P1;PMS_P2;Temp;Humidity;BMP_temperature;BMP_pressure;BME280_temperature;BME280_humidity;BME280_pressure;Samples;Min_cycle;Max_cycle;Signal;HPM_P1;HPM_P2
2023/08/14 00:01:04;;;;;;;11.63;8.00;;;;;;;19.65;100.00;-18555.56;5043115;28;20041;-79
2023/08/14 00:03:29;;;;;;;12.48;7.53;;;;;;;19.67;100.00;-18555.97;5049384;28;20047;-81
2023/08/14 00:05:55;;;;;;;10.88;7.13;;;;;;;19.71;100.00;-18557.06;5058318;28;20045;-81
2023/08/14 00:08:20;;;;;;;11.65;7.07;;;;;;;19.71;100.00;-18557.06;5047036;28;20044;-80
2023/08/14 00:10:45;;;;;;;11.07;7.05;;;;;;;19.59;100.00;-18554.06;5050374;28;20032;-80
2023/08/14 00:13:12;;;;;;;19.45;7.93;;;;;;;19.61;100.00;-18554.47;5048120;28;20110;-80
2023/08/14 00:15:38;;;;;;;11.23;7.25;;;;;;;19.54;100.00;-18552.56;5049987;28;20037;-81
2023/08/14 00:18:04;;;;;;;11.07;7.60;;;;;;;19.35;100.00;-18547.53;5054113;28;20071;-81
2023/08/14 00:20:29;;;;;;;11.00;7.95;;;;;;;19.28;100.00;-18545.75;5042243;28;20056;-80
2023/08/14 00:22:55;;;;;;;13.65;8.57;;;;;;;19.40;100.00;-18548.88;5042844;28;20041;-80
2023/08/14 00:25:21;;;;;;;13.38;8.10;;;;;;;19.27;100.00;-18545.34;5052925;28;20048;-80
2023/08/14 00:27:47;;;;;;;12.40;8.27;;;;;;;19.37;100.00;-18548.06;5051118;28;20476;-80
2023/08/14 00:30:12;;;;;;;14.73;8.30;;;;;;;19.32;100.00;-18546.72;5047951;28;20044;-81
2023/08/14 00:32:37;;;;;;;10.52;8.18;;;;;;;19.31;100.00;-18546.56;5052741;28;20033;-81
2023/08/14 00:35:03;;;;;;;12.52;8.48;;;;;;;19.36;100.00;-18547.94;5041593;28;20049;-80
2023/08/14 00:37:43;;;;;;;12.05;8.13;;;;;;;19.28;100.00;-18545.63;5047544;28;20128;-80
2023/08/14 00:40:10;;;;;;;13.93;7.60;;;;;;;19.28;100.00;-18545.75;5047876;28;20098;-81
2023/08/14 00:42:38;;;;;;;15.27;7.82;;;;;;;19.17;100.00;-18542.88;5045538;28;20051;-79
2023/08/14 00:45:04;;;;;;;14.55;7.65;;;;;;;19.16;100.00;-18542.47;5057240;28;20036;-80
2023/08/14 00:47:30;;;;;;;15.75;7.80;;;;;;;19.08;100.00;-18540.44;5050753;28;20052;-79
2023/08/14 00:49:56;;;;;;;14.23;8.13;;;;;;;19.01;100.00;-18538.41;5047021;28;20049;-80
2023/08/14 00:52:21;;;;;;;14.90;8.07;;;;;;;19.04;100.00;-18539.34;5040708;28;20048;-79
2023/08/14 00:54:46;;;;;;;14.23;8.75;;;;;;;19.05;100.00;-18539.63;5057275;28;20033;-79
2023/08/14 00:57:12;;;;;;;11.38;7.22;;;;;;;19.15;100.00;-18542.34;5044216;28;20094;-79
2023/08/14 00:59:38;;;;;;;9.35;7.05;;;;;;;19.00;100.00;-18538.25;5051854;28;20036;-79
2023/08/14 01:02:03;;;;;;;12.13;8.35;;;;;;;18.99;100.00;-18537.84;5042079;28;20057;-79
2023/08/14 01:04:28;;;;;;;12.10;7.88;;;;;;;19.01;100.00;-18538.53;5049150;28;20036;-79
2023/08/14 01:06:54;;;;;;;13.00;8.15;;;;;;;18.86;100.00;-18534.44;5044990;28;20045;-79
2023/08/14 01:09:19;;;;;;;14.30;8.52;;;;;;;18.84;100.00;-18534.03;5047396;28;20112;-79
2023/08/14 01:12:25;;;;;;;13.63;8.88;;;;;;;18.60;100.00;-18527.63;5041777;28;20052;-79
2023/08/14 01:14:58;;;;;;;10.82;8.25;;;;;;;18.59;100.00;-18527.22;5021295;28;20544;-79
2023/08/14 01:17:27;;;;;;;11.10;8.13;;;;;;;18.48;100.00;-18524.34;5025837;28;20069;-78
2023/08/14 01:19:57;;;;;;;14.95;8.45;;;;;;;18.50;100.00;-18524.91;5050315;28;20067;-79
2023/08/14 01:22:55;;;;;;;11.55;8.57;;;;;;;18.65;100.00;-18528.84;5042481;28;20562;-78
2023/08/14 01:25:37;;;;;;;11.13;8.13;;;;;;;18.55;100.00;-18526.25;5019415;28;20049;-79
2023/08/14 01:28:03;;;;;;;12.98;8.38;;;;;;;18.53;100.00;-18525.56;5041527;28;20060;-79
2023/08/14 01:30:29;;;;;;;10.95;7.85;;;;;;;18.58;100.00;-18526.94;5040483;28;20056;-79
2023/08/14 01:32:55;;;;;;;11.00;7.88;;;;;;;18.30;100.00;-18519.44;5046167;28;20099;-78
2023/08/14 01:35:23;;;;;;;14.02;8.13;;;;;;;18.29;100.00;-18519.16;5019795;28;20037;-79
2023/08/14 01:37:59;;;;;;;14.18;8.90;;;;;;;18.32;100.00;-18519.97;5045915;28;20101;-78
2023/08/14 01:40:33;;;;;;;13.48;8.43;;;;;;;18.36;100.00;-18521.06;5031354;28;20458;-78
2023/08/14 01:43:03;;;;;;;11.75;8.18;;;;;;;18.29;100.00;-18519.16;5046222;28;20458;-78
2023/08/14 01:45:32;;;;;;;11.68;8.18;;;;;;;18.26;100.00;-18518.63;5042374;28;21229;-79
2023/08/14 01:47:59;;;;;;;11.23;8.30;;;;;;;18.25;100.00;-18518.22;5038703;28;20361;-78
2023/08/14 01:50:26;;;;;;;12.13;8.00;;;;;;;18.21;100.00;-18517.25;5024676;28;21068;-78
2023/08/14 01:52:52;;;;;;;9.65;7.72;;;;;;;18.08;100.00;-18513.56;5028605;28;20040;-79
2023/08/14 01:55:18;;;;;;;12.57;7.85;;;;;;;18.16;100.00;-18515.75;5042254;28;20503;-79
2023/08/14 01:57:43;;;;;;;11.88;7.60;;;;;;;18.11;100.00;-18514.53;5039779;28;20048;-78
2023/08/14 02:00:09;;;;;;;11.95;9.00;;;;;;;18.14;100.00;-18515.34;5039638;28;20140;-79
2023/08/14 02:02:35;;;;;;;13.75;8.35;;;;;;;18.22;100.00;-18517.41;5044009;28;20183;-78
2023/08/14 02:05:01;;;;;;;13.80;7.80;;;;;;;18.26;100.00;-18518.63;5042038;28;20684;-78
2023/08/14 02:07:26;;;;;;;12.27;8.40;;;;;;;18.16;100.00;-18515.91;5038131;28;20125;-79
2023/08/14 02:09:51;;;;;;;11.40;8.55;;;;;;;18.23;100.00;-18517.81;5044825;28;20049;-79
2023/08/14 02:12:17;;;;;;;9.95;7.63;;;;;;;18.20;100.00;-18516.97;5038734;28;20041;-79
2023/08/14 02:14:42;;;;;;;14.35;8.40;;;;;;;18.07;100.00;-18513.44;5029017;28;20048;-80
2023/08/14 02:17:07;;;;;;;12.27;8.00;;;;;;;18.11;100.00;-18514.53;5025331;28;20056;-80
2023/08/14 02:19:33;;;;;;;14.07;9.23;;;;;;;18.09;100.00;-18513.97;5045538;28;20820;-79
2023/08/14 02:21:58;;;;;;;15.95;10.13;;;;;;;18.09;100.00;-18513.84;5026562;28;20128;-79
2023/08/14 02:24:24;;;;;;;13.52;8.75;;;;;;;18.14;100.00;-18515.34;5042065;28;20049;-80
2023/08/14 02:26:49;;;;;;;11.57;7.90;;;;;;;17.94;100.00;-18510.03;5039187;28;20456;-79
2023/08/14 02:29:14;;;;;;;14.27;8.68;;;;;;;17.98;100.00;-18511.13;5025338;28;20111;-79
2023/08/14 02:31:40;;;;;;;11.30;8.55;;;;;;;18.04;100.00;-18512.63;5045293;28;20044;-79
2023/08/14 02:34:05;;;;;;;13.65;8.45;;;;;;;17.77;100.00;-18505.38;5044710;28;20440;-79
2023/08/14 02:36:31;;;;;;;12.55;8.48;;;;;;;17.81;100.00;-18506.47;5039050;28;21384;-79
2023/08/14 02:38:56;;;;;;;13.88;8.20;;;;;;;17.76;100.00;-18505.25;5043197;28;20045;-79
2023/08/14 02:41:22;;;;;;;13.68;8.57;;;;;;;17.69;100.00;-18503.34;5039447;28;20588;-79
2023/08/14 02:43:47;;;;;;;11.80;8.27;;;;;;;17.86;100.00;-18507.84;5039222;28;20053;-79
2023/08/14 02:46:13;;;;;;;13.48;8.23;;;;;;;17.81;100.00;-18506.63;5023277;28;20050;-79
2023/08/14 02:48:38;;;;;;;10.02;7.47;;;;;;;17.72;100.00;-18504.03;5036643;28;20419;-79
2023/08/14 02:51:04;;;;;;;11.10;7.93;;;;;;;17.72;100.00;-18504.03;5043910;28;20029;-79
2023/08/14 02:53:29;;;;;;;11.32;7.60;;;;;;;17.64;100.00;-18501.97;5040350;28;20508;-79
2023/08/14 02:55:56;;;;;;;9.93;7.80;;;;;;;17.61;100.00;-18501.16;5045046;28;20120;-79
2023/08/14 02:58:21;;;;;;;10.85;8.10;;;;;;;17.53;100.00;-18499.09;5040502;28;20068;-79
2023/08/14 03:00:47;;;;;;;14.60;8.00;;;;;;;17.64;100.00;-18501.97;5024083;28;20597;-80
2023/08/14 03:03:13;;;;;;;10.55;8.43;;;;;;;17.56;100.00;-18499.78;5041660;28;20045;-80
2023/08/14 03:05:39;;;;;;;12.98;7.97;;;;;;;17.50;100.00;-18498.28;5039120;28;20523;-80
2023/08/14 03:08:05;;;;;;;10.48;7.90;;;;;;;17.56;100.00;-18499.78;5042097;28;20044;-79
2023/08/14 03:10:30;;;;;;;12.25;8.00;;;;;;;17.57;100.00;-18500.06;5042311;28;20059;-80
2023/08/14 03:12:56;;;;;;;12.23;7.82;;;;;;;17.59;100.00;-18500.59;5044119;28;20067;-80
2023/08/14 03:15:22;;;;;;;13.02;8.27;;;;;;;17.53;100.00;-18498.97;5042140;28;20110;-79
2023/08/14 03:17:47;;;;;;;11.05;8.18;;;;;;;17.55;100.00;-18499.50;5042045;28;20036;-80
2023/08/14 03:20:13;;;;;;;12.75;8.93;;;;;;;17.57;100.00;-18500.06;5041455;28;20480;-80
2023/08/14 03:22:39;;;;;;;13.93;8.40;;;;;;;17.69;100.00;-18503.19;5047392;28;20084;-80
2023/08/14 03:25:04;;;;;;;12.73;9.05;;;;;;;17.71;100.00;-18503.88;5041109;28;20145;-80
2023/08/14 03:27:30;;;;;;;14.57;8.20;;;;;;;17.80;100.00;-18506.22;5040347;28;20071;-80
2023/08/14 03:29:55;;;;;;;14.38;8.73;;;;;;;17.86;100.00;-18507.72;5043447;28;20611;-80
2023/08/14 03:32:21;;;;;;;13.32;8.10;;;;;;;17.63;100.00;-18501.56;5043008;28;20048;-80
2023/08/14 03:34:46;;;;;;;11.88;8.82;;;;;;;17.46;100.00;-18497.19;5042622;28;20041;-80
2023/08/14 03:37:11;;;;;;;15.02;8.35;;;;;;;17.26;100.00;-18491.88;5041583;28;20417;-80
2023/08/14 03:39:37;;;;;;;15.70;9.07;;;;;;;17.31;100.00;-18493.09;5051259;28;20037;-80
2023/08/14 03:42:02;;;;;;;13.75;8.70;;;;;;;17.30;100.00;-18492.97;5055066;28;20036;-80
2023/08/14 03:44:27;;;;;;;15.93;9.63;;;;;;;17.37;100.00;-18494.88;5051622;28;20048;-80
2023/08/14 03:46:53;;;;;;;14.50;8.77;;;;;;;17.50;100.00;-18498.16;5048857;28;20543;-80
2023/08/14 03:49:18;;;;;;;14.20;9.68;;;;;;;17.51;100.00;-18498.44;5046094;28;20045;-80
2023/08/14 03:51:44;;;;;;;13.65;9.00;;;;;;;17.29;100.00;-18492.69;5047529;28;20033;-79
2023/08/14 03:54:09;;;;;;;14.88;9.57;;;;;;;17.55;100.00;-18499.66;5047459;28;20049;-80
2023/08/14 03:56:34;;;;;;;13.98;9.73;;;;;;;17.71;100.00;-18503.75;5047992;28;20045;-79
2023/08/14 03:59:00;;;;;;;14.48;9.23;;;;;;;17.77;100.00;-18505.53;5047141;28;20032;-79
2023/08/14 04:01:25;;;;;;;11.20;8.45;;;;;;;17.78;100.00;-18505.81;5048066;28;20119;-80
2023/08/14 04:03:50;;;;;;;13.15;9.57;;;;;;;17.75;100.00;-18504.84;5051464;28;20033;-80
2023/08/14 04:06:16;;;;;;;14.20;9.88;;;;;;;17.83;100.00;-18506.88;5049148;28;20508;-80
2023/08/14 04:08:41;;;;;;;14.40;8.95;;;;;;;17.87;100.00;-18508.13;5048386;28;20043;-79
2023/08/14 04:11:07;;;;;;;15.00;9.55;;;;;;;17.50;100.00;-18498.16;5020578;28;20033;-80
2023/08/14 04:13:32;;;;;;;15.82;9.02;;;;;;;17.47;100.00;-18497.34;5028753;28;20159;-80
2023/08/14 04:16:06;;;;;;;13.30;10.32;;;;;;;17.57;100.00;-18500.06;5042610;28;20470;-80
2023/08/14 04:18:32;;;;;;;15.13;9.27;;;;;;;17.78;100.00;-18505.66;5037805;28;20107;-80
2023/08/14 04:20:58;;;;;;;15.52;9.15;;;;;;;18.02;100.00;-18512.06;5042928;28;20053;-79
2023/08/14 04:23:25;;;;;;;11.55;8.82;;;;;;;17.99;100.00;-18511.41;5039495;28;20045;-79
2023/08/14 04:25:51;;;;;;;12.73;9.57;;;;;;;17.86;100.00;-18507.84;5038730;28;20408;-79
2023/08/14 04:28:17;;;;;;;12.60;8.93;;;;;;;17.89;100.00;-18508.53;5036529;28;20079;-79
2023/08/14 04:30:42;;;;;;;14.25;9.75;;;;;;;17.91;100.00;-18509.22;5038955;28;20041;-80
2023/08/14 04:33:08;;;;;;;12.95;9.27;;;;;;;17.91;100.00;-18509.06;5036879;28;20075;-80
2023/08/14 04:35:33;;;;;;;13.57;9.45;;;;;;;17.84;100.00;-18507.16;5033370;28;20041;-80
2023/08/14 04:37:58;;;;;;;12.75;9.88;;;;;;;18.01;100.00;-18511.81;5036970;28;20133;-80
2023/08/14 04:40:24;;;;;;;13.27;10.13;;;;;;;17.88;100.00;-18508.25;5037738;28;20045;-80
2023/08/14 04:42:49;;;;;;;16.85;10.00;;;;;;;17.66;100.00;-18502.38;5034212;28;20378;-80
2023/08/14 04:45:15;;;;;;;16.55;11.25;;;;;;;17.60;100.00;-18500.88;5030749;28;20045;-80
2023/08/14 04:47:40;;;;;;;13.27;9.88;;;;;;;17.63;100.00;-18501.69;5035183;28;20109;-80
2023/08/14 04:50:06;;;;;;;16.00;10.15;;;;;;;17.68;100.00;-18503.06;5041164;28;20739;-80
2023/08/14 04:52:31;;;;;;;14.55;10.95;;;;;;;17.66;100.00;-18502.50;5038519;28;20455;-80
2023/08/14 04:54:56;;;;;;;12.63;10.05;;;;;;;17.62;100.00;-18501.44;5032863;28;20099;-80
2023/08/14 04:57:22;;;;;;;18.30;11.18;;;;;;;17.68;100.00;-18502.94;5041154;28;20084;-80
2023/08/14 04:59:47;;;;;;;15.38;10.57;;;;;;;17.72;100.00;-18504.03;5041051;28;20049;-80
2023/08/14 05:02:13;;;;;;;16.77;11.20;;;;;;;17.54;100.00;-18499.25;5038684;28;20042;-79
2023/08/14 05:04:38;;;;;;;15.32;11.32;;;;;;;17.59;100.00;-18500.59;5032823;28;20064;-79
2023/08/14 05:07:04;;;;;;;17.23;11.40;;;;;;;17.66;100.00;-18502.38;5041015;28;20065;-79
2023/08/14 05:09:29;;;;;;;17.05;11.25;;;;;;;17.63;100.00;-18501.56;5043522;28;20040;-80
2023/08/14 05:11:56;;;;;;;16.48;10.90;;;;;;;17.53;100.00;-18498.97;5044816;28;20041;-79
2023/08/14 05:14:22;;;;;;;18.88;11.63;;;;;;;17.65;100.00;-18502.25;5041823;28;20052;-79
2023/08/14 05:16:47;;;;;;;16.75;10.63;;;;;;;17.83;100.00;-18506.88;5038284;28;20449;-79
2023/08/14 05:19:13;;;;;;;17.60;12.13;;;;;;;18.08;100.00;-18513.72;5043973;28;20041;-79
2023/08/14 05:21:38;;;;;;;18.52;12.02;;;;;;;18.22;100.00;-18517.53;5044478;28;20393;-80
2023/08/14 05:24:04;;;;;;;19.05;12.45;;;;;;;18.06;100.00;-18513.16;5039546;28;20071;-79
2023/08/14 05:26:29;;;;;;;21.42;13.07;;;;;;;18.07;100.00;-18513.44;5039705;28;20068;-80
2023/08/14 05:28:55;;;;;;;16.38;12.73;;;;;;;18.16;100.00;-18515.91;5040842;28;20459;-80
2023/08/14 05:31:20;;;;;;;16.15;11.95;;;;;;;18.21;100.00;-18517.13;5043198;28;20045;-79
2023/08/14 05:33:46;;;;;;;19.85;13.63;;;;;;;18.21;100.00;-18517.13;5044773;28;20041;-79
2023/08/14 05:36:11;;;;;;;19.70;13.55;;;;;;;18.25;100.00;-18518.34;5041360;28;20041;-79
2023/08/14 05:38:36;;;;;;;18.42;13.23;;;;;;;18.32;100.00;-18519.97;5044070;28;20037;-79
2023/08/14 05:41:02;;;;;;;23.15;14.93;;;;;;;18.41;100.00;-18522.56;5020365;28;20059;-78
2023/08/14 05:43:27;;;;;;;22.05;14.60;;;;;;;18.47;100.00;-18524.22;5039625;28;20103;-78
2023/08/14 05:45:52;;;;;;;20.17;13.75;;;;;;;18.77;100.00;-18532.13;5044492;28;20136;-79
2023/08/14 05:48:18;;;;;;;24.15;14.80;;;;;;;18.84;100.00;-18534.03;5035097;28;20131;-79
2023/08/14 05:50:43;;;;;;;21.42;13.63;;;;;;;19.06;100.00;-18539.91;5021496;28;20048;-79
2023/08/14 05:53:09;;;;;;;20.13;15.10;;;;;;;19.16;100.00;-18542.47;5043777;28;20135;-79
2023/08/14 05:55:36;;;;;;;24.70;15.00;;;;;;;19.06;100.00;-18539.91;5022821;28;20045;-79
2023/08/14 05:58:03;;;;;;;20.40;13.77;;;;;;;19.17;100.00;-18542.75;5046592;28;20048;-79
2023/08/14 06:00:29;;;;;;;20.73;14.52;;;;;;;19.29;100.00;-18545.88;5050037;28;20048;-79
2023/08/14 06:02:57;;;;;;;21.08;13.77;;;;;;;19.67;100.00;-18555.97;5050768;28;20064;-79
2023/08/14 06:05:23;;;;;;;21.40;13.10;;;;;;;19.83;100.00;-18560.34;5003532;28;20065;-79
2023/08/14 06:07:49;;;;;;;18.60;13.30;;;;;;;19.90;100.00;-18562.09;5021799;28;20121;-79
2023/08/14 06:10:15;;;;;;;18.65;13.48;;;;;;;20.09;100.00;-18567.13;5011286;28;20527;-79
2023/08/14 06:12:41;;;;;;;20.95;13.23;;;;;;;19.97;100.00;-18564.16;5009829;28;20170;-79
2023/08/14 06:15:07;;;;;;;19.10;12.95;;;;;;;20.15;100.00;-18568.78;5006473;28;20123;-79
2023/08/14 06:17:33;;;;;;;17.55;12.30;;;;;;;20.22;100.00;-18570.69;5002289;28;20499;-80
2023/08/14 06:19:59;;;;;;;17.63;12.25;;;;;;;20.25;100.00;-18571.50;5016626;28;20567;-79
2023/08/14 06:22:24;;;;;;;19.15;12.70;;;;;;;20.20;100.00;-18570.13;5005508;28;20120;-79
2023/08/14 06:24:50;;;;;;;16.25;11.75;;;;;;;20.31;100.00;-18573.13;5014195;28;20050;-80
2023/08/14 06:27:15;;;;;;;15.35;11.77;;;;;;;20.32;100.00;-18573.25;5008791;28;20696;-80
2023/08/14 06:29:41;;;;;;;16.95;11.00;;;;;;;20.50;100.00;-18578.16;5007779;28;20050;-80
2023/08/14 06:32:06;;;;;;;14.68;10.27;;;;;;;20.58;100.00;-18580.22;5007857;28;20042;-80
2023/08/14 06:34:32;;;;;;;15.18;10.00;;;;;;;20.79;100.00;-18585.78;5008988;28;20660;-80
2023/08/14 06:36:57;;;;;;;17.20;10.30;;;;;;;21.01;100.00;-18591.63;5026730;28;20055;-80
2023/08/14 06:39:22;;;;;;;15.05;9.63;;;;;;;20.93;100.00;-18589.59;5041845;28;20447;-80
2023/08/14 06:41:48;;;;;;;16.67;9.65;;;;;;;21.11;100.00;-18594.47;5039056;28;20056;-79
2023/08/14 06:44:13;;;;;;;15.77;9.43;;;;;;;20.94;100.00;-18589.88;5028794;28;20044;-80
2023/08/14 06:46:39;;;;;;;15.77;9.63;;;;;;;21.22;100.00;-18597.22;5032963;28;20060;-79
2023/08/14 06:49:04;;;;;;;15.80;9.40;;;;;;;21.59;100.00;-18607.13;5043784;28;20079;-80
2023/08/14 06:51:31;;;;;;;14.85;9.50;;;;;;;21.25;100.00;-18598.03;5039892;28;20692;-79
2023/08/14 06:53:57;;;;;;;14.18;9.30;;;;;;;21.29;100.00;-18599.09;5042053;28;20048;-79
2023/08/14 06:56:22;;;;;;;13.90;8.45;;;;;;;21.32;100.00;-18599.91;5030399;28;20045;-79
2023/08/14 06:58:48;;;;;;;16.70;9.02;;;;;;;21.21;100.00;-18596.94;5044402;28;20061;-80
2023/08/14 07:01:14;;;;;;;16.05;9.68;;;;;;;21.35;100.00;-18600.88;5036779;28;20071;-80
2023/08/14 07:03:39;;;;;;;14.18;9.27;;;;;;;21.46;100.00;-18603.59;5047696;28;20132;-79
2023/08/14 07:06:04;;;;;;;15.63;8.82;;;;;;;21.33;100.00;-18600.34;5037519;28;20049;-79
2023/08/14 07:08:30;;;;;;;13.77;9.10;;;;;;;21.52;100.00;-18605.22;5018444;28;20037;-79
2023/08/14 07:10:55;;;;;;;14.77;7.97;;;;;;;21.65;100.00;-18608.75;5043725;28;20048;-79
2023/08/14 07:13:22;;;;;;;15.73;7.88;;;;;;;21.63;100.00;-18608.22;5035671;28;23195;-79
2023/08/14 07:15:48;;;;;;;14.30;8.70;;;;;;;21.72;100.00;-18610.66;5032858;28;20397;-79
2023/08/14 07:18:18;;;;;;;15.52;7.88;;;;;;;21.87;100.00;-18614.59;5035712;28;20052;-80
2023/08/14 07:20:46;;;;;;;15.55;8.30;;;;;;;21.89;100.00;-18615.16;5035651;28;20053;-79
2023/08/14 07:23:16;;;;;;;15.32;8.35;;;;;;;21.97;100.00;-18617.31;5023395;28;20088;-79
2023/08/14 07:25:41;;;;;;;16.58;8.40;;;;;;;21.87;100.00;-18614.59;5034032;28;20547;-80
2023/08/14 07:28:07;;;;;;;16.75;7.90;;;;;;;21.75;100.00;-18611.47;5030922;28;20052;-80
2023/08/14 07:30:32;;;;;;;12.70;7.75;;;;;;;21.67;100.00;-18609.31;5036110;28;20040;-80
2023/08/14 07:32:57;;;;;;;17.50;7.75;;;;;;;21.76;100.00;-18611.75;5022839;28;20049;-80
2023/08/14 07:35:23;;;;;;;12.90;7.45;;;;;;;21.82;100.00;-18613.38;5030742;28;20041;-80
2023/08/14 07:37:48;;;;;;;12.75;7.85;;;;;;;21.98;100.00;-18617.47;5034509;28;20032;-80
2023/08/14 07:40:14;;;;;;;13.45;8.00;;;;;;;22.00;100.00;-18618.13;5034959;28;20681;-80
2023/08/14 07:42:39;;;;;;;14.82;7.93;;;;;;;21.95;100.00;-18616.78;5020735;28;20447;-80
2023/08/14 07:45:05;;;;;;;17.33;7.90;;;;;;;21.96;100.00;-18616.91;5036433;28;20861;-80
2023/08/14 07:47:30;;;;;;;15.85;7.93;;;;;;;22.00;100.00;-18618.13;5035427;28;20044;-80
2023/08/14 07:49:56;;;;;;;15.90;8.40;;;;;;;22.06;100.00;-18619.78;5035322;28;20137;-80
2023/08/14 07:52:21;;;;;;;13.52;8.10;;;;;;;22.13;100.00;-18621.41;5034974;28;20134;-80
2023/08/14 07:54:46;;;;;;;14.95;8.55;;;;;;;22.12;100.00;-18621.13;5031939;28;20049;-80
2023/08/14 07:57:12;;;;;;;12.82;7.47;;;;;;;22.12;100.00;-18621.25;5035938;28;20106;-80
2023/08/14 07:59:37;;;;;;;11.63;7.07;;;;;;;22.26;100.00;-18625.06;5037798;28;20048;-80
2023/08/14 08:02:02;;;;;;;14.45;6.95;;;;;;;22.33;100.00;-18626.69;5036585;28;20869;-80
2023/08/14 08:04:34;;;;;;;13.00;7.30;;;;;;;22.53;100.00;-18632.28;5038936;28;20045;-80
2023/08/14 08:07:00;;;;;;;11.25;6.07;;;;;;;22.59;100.00;-18633.75;5040787;28;20049;-80
2023/08/14 08:09:25;;;;;;;13.50;6.05;;;;;;;22.72;100.00;-18637.28;5037041;28;20060;-80
2023/08/14 08:11:50;;;;;;;11.25;6.10;;;;;;;22.88;100.00;-18641.50;5035732;28;20122;-80
2023/08/14 08:14:16;;;;;;;11.50;5.97;;;;;;;23.14;100.00;-18648.28;5037833;28;20041;-80
2023/08/14 08:16:41;;;;;;;11.88;5.45;;;;;;;23.10;100.00;-18647.19;5034646;28;20124;-80
2023/08/14 08:19:06;;;;;;;10.20;6.03;;;;;;;23.27;100.00;-18651.69;5033647;28;20092;-80
2023/08/14 08:21:32;;;;;;;11.35;4.95;;;;;;;23.34;100.00;-18653.72;5029326;28;20049;-80
2023/08/14 08:23:58;;;;;;;10.35;4.95;;;;;;;23.43;100.00;-18656.03;5042656;28;20056;-80
2023/08/14 08:26:25;;;;;;;8.10;4.35;;;;;;;23.49;100.00;-18657.50;5041270;28;20703;-80
2023/08/14 08:28:50;;;;;;;9.60;3.90;;;;;;;23.63;100.00;-18661.31;5038639;28;20560;-80
2023/08/14 08:31:15;;;;;;;7.65;4.00;;;;;;;23.76;100.00;-18664.69;5038674;28;20147;-80
2023/08/14 08:33:41;;;;;;;8.35;3.80;;;;;;;23.99;100.00;-18670.94;5041252;28;20124;-80
2023/08/14 08:36:06;;;;;;;10.35;3.80;;;;;;;24.15;100.00;-18675.00;5036852;28;20080;-80
2023/08/14 08:38:31;;;;;;;12.40;4.00;;;;;;;23.98;100.00;-18670.66;5035056;28;20047;-80
2023/08/14 08:41:02;;;;;;;11.27;3.58;;;;;;;24.05;100.00;-18672.56;5019370;28;20590;-80
2023/08/14 08:43:28;;;;;;;8.55;3.47;;;;;;;24.19;100.00;-18676.22;5037969;28;20075;-80
2023/08/14 08:45:58;;;;;;;9.27;3.40;;;;;;;24.44;100.00;-18682.88;5034775;28;20076;-80
2023/08/14 08:48:23;;;;;;;8.23;3.25;;;;;;;24.70;100.00;-18689.63;5042279;28;20774;-80
2023/08/14 08:50:50;;;;;;;7.13;3.50;;;;;;;24.52;100.00;-18685.03;5036146;28;20037;-80
2023/08/14 08:53:18;;;;;;;11.32;4.50;;;;;;;24.46;100.00;-18683.41;5021625;28;20321;-80
2023/08/14 08:55:43;;;;;;;6.80;3.53;;;;;;;24.51;100.00;-18684.63;5037235;28;20851;-80
2023/08/14 08:58:10;;;;;;;5.28;3.22;;;;;;;24.66;100.00;-18688.56;5035602;28;20052;-80
2023/08/14 09:00:35;;;;;;;7.15;3.88;;;;;;;24.70;100.00;-18689.78;5038628;28;20093;-80
2023/08/14 09:03:01;;;;;;;10.75;3.38;;;;;;;24.75;100.00;-18691.00;5040962;28;20452;-80
2023/08/14 09:05:27;;;;;;;8.23;3.03;;;;;;;24.91;100.00;-18695.31;5037358;28;20047;-80
2023/08/14 09:07:52;;;;;;;5.95;3.03;;;;;;;25.05;100.00;-18698.97;5039119;28;20064;-80
2023/08/14 09:10:18;;;;;;;5.50;2.90;;;;;;;25.21;100.00;-18703.19;5035020;28;20136;-80
2023/08/14 09:12:43;;;;;;;5.03;2.40;;;;;;;25.18;100.00;-18702.50;5017203;28;20036;-80
2023/08/14 09:15:09;;;;;;;8.52;2.67;;;;;;;25.51;100.00;-18711.03;5037455;28;20095;-80
2023/08/14 09:17:35;;;;;;;5.93;2.83;;;;;;;25.74;100.00;-18717.13;5040907;28;20052;-80
2023/08/14 09:20:02;;;;;;;11.02;3.10;;;;;;;25.65;100.00;-18714.81;5040590;28;20121;-80
2023/08/14 09:22:28;;;;;;;12.95;3.03;;;;;;;25.57;100.00;-18712.66;5038919;28;20067;-80
2023/08/14 09:24:55;;;;;;;7.75;2.50;;;;;;;25.53;100.00;-18711.72;5034935;28;20041;-80
2023/08/14 09:27:22;;;;;;;7.85;2.63;;;;;;;25.77;97.37;-18717.94;5036248;28;20052;-80
2023/08/14 09:29:51;;;;;;;6.05;2.50;;;;;;;25.92;99.42;-18722.00;5039405;28;20048;-80
2023/08/14 09:32:16;;;;;;;8.82;2.47;;;;;;;26.11;93.16;-18727.13;5036859;28;20033;-80
2023/08/14 09:34:41;;;;;;;6.43;2.85;;;;;;;26.23;92.18;-18730.25;5046216;28;20530;-80
2023/08/14 09:37:07;;;;;;;4.28;2.20;;;;;;;26.47;93.98;-18736.59;5043663;28;20072;-81
2023/08/14 09:39:32;;;;;;;5.93;2.58;;;;;;;26.11;85.08;-18727.13;5043586;28;20056;-81
2023/08/14 09:41:59;;;;;;;8.02;3.13;;;;;;;26.18;89.54;-18728.88;5022740;28;20134;-81
2023/08/14 09:44:25;;;;;;;5.32;3.15;;;;;;;26.07;86.66;-18725.91;5026033;28;20046;-81
2023/08/14 09:46:54;;;;;;;8.07;2.58;;;;;;;26.20;84.21;-18729.44;5038393;28;20728;-81
2023/08/14 09:49:20;;;;;;;6.68;2.22;;;;;;;26.21;85.43;-18729.69;5039468;28;20754;-81
2023/08/14 09:51:56;;;;;;;8.90;2.53;;;;;;;26.25;87.96;-18730.78;5041519;28;20037;-81
2023/08/14 09:54:32;;;;;;;5.85;2.75;;;;;;;26.68;91.98;-18742.13;5038084;28;21563;-80
2023/08/14 09:57:05;;;;;;;5.95;2.30;;;;;;;26.89;88.01;-18747.69;5039536;28;20595;-81
2023/08/14 09:59:30;;;;;;;5.32;2.40;;;;;;;26.87;83.64;-18747.00;5045085;28;20048;-81
2023/08/14 10:01:59;;;;;;;5.05;2.25;;;;;;;27.01;86.39;-18750.91;5043243;28;20044;-81
2023/08/14 10:04:28;;;;;;;7.18;2.10;;;;;;;26.96;82.10;-18749.56;5042927;28;20045;-81
2023/08/14 10:06:54;;;;;;;8.20;2.17;;;;;;;26.90;84.04;-18747.94;5041146;28;20087;-81
2023/08/14 10:09:22;;;;;;;5.30;2.30;;;;;;;27.05;79.16;-18751.72;5041399;28;20048;-81
2023/08/14 10:11:48;;;;;;;8.02;2.22;;;;;;;26.91;82.27;-18748.09;5041656;28;20037;-81
2023/08/14 10:14:16;;;;;;;5.45;1.98;;;;;;;26.75;78.26;-18744.03;5042263;28;20606;-81
2023/08/14 10:16:42;;;;;;;6.18;2.35;;;;;;;26.99;80.39;-18750.25;5039243;28;20060;-81
2023/08/14 10:19:16;;;;;;;6.30;2.53;;;;;;;27.13;86.77;-18754.03;5041476;28;20060;-81
2023/08/14 10:21:43;;;;;;;5.10;2.10;;;;;;;27.10;82.30;-18753.22;5040445;28;20072;-81
2023/08/14 10:24:11;;;;;;;7.03;2.10;;;;;;;27.04;80.74;-18751.59;5015964;28;20468;-81
2023/08/14 10:26:37;;;;;;;5.43;2.00;;;;;;;27.21;76.57;-18756.06;5024926;28;20134;-81
2023/08/14 10:29:03;;;;;;;5.07;1.95;;;;;;;27.20;82.16;-18755.91;5041804;28;20132;-81
2023/08/14 10:31:30;;;;;;;4.63;1.73;;;;;;;27.11;72.34;-18753.47;5029113;28;20049;-81
2023/08/14 10:33:57;;;;;;;6.45;2.20;;;;;;;27.23;73.49;-18756.59;5044388;28;20064;-81
2023/08/14 10:36:29;;;;;;;7.05;1.92;;;;;;;27.47;72.30;-18762.94;5034648;28;20115;-81
2023/08/14 10:39:06;;;;;;;4.18;1.67;;;;;;;27.40;67.09;-18761.06;5037071;28;20045;-81
2023/08/14 10:41:34;;;;;;;4.55;1.50;;;;;;;27.38;63.64;-18760.66;5033626;28;20128;-81
2023/08/14 10:44:03;;;;;;;;;;;;;;;27.60;72.93;-18766.44;5025535;28;20056;-81
2023/08/14 10:46:29;;;;;;;10.30;2.47;;;;;;;27.63;71.38;-18767.13;5032978;28;21153;-81
2023/08/14 10:48:54;;;;;;;7.45;1.88;;;;;;;27.85;72.74;-18772.94;5042521;28;20132;-81
2023/08/14 10:51:21;;;;;;;10.27;2.33;;;;;;;27.97;71.74;-18776.16;5038829;28;20060;-81
2023/08/14 10:53:46;;;;;;;5.03;2.00;;;;;;;27.74;67.26;-18770.09;5040595;28;20053;-81
2023/08/14 10:56:12;;;;;;;7.60;1.83;;;;;;;27.75;63.83;-18770.22;5042886;28;20570;-81
2023/08/14 10:58:39;;;;;;;4.90;1.92;;;;;;;28.03;70.00;-18777.78;5039949;28;20044;-82
2023/08/14 11:01:09;;;;;;;4.53;1.60;;;;;;;28.12;69.41;-18780.09;5039863;28;20526;-82
2023/08/14 11:03:54;;;;;;;3.85;1.83;;;;;;;28.06;64.94;-18778.59;5026301;28;20045;-82
2023/08/14 11:06:48;;;;;;;5.40;1.67;;;;;;;27.88;63.49;-18773.75;5040893;28;20070;-82
2023/08/14 11:09:15;;;;;;;5.45;1.75;;;;;;;27.87;62.04;-18773.47;5038426;28;20053;-81